sensor_id;sensor_type;location;lat;lon;timestamp;pressure;altitude;pressure_sealevel;temperature;humidity
61488;BME280;47351;53.326;-6.298;2023-07-08T00:02:36;100381.38;;;16.94;73.93
61488;BME280;47351;53.326;-6.298;2023-07-08T00:05:27;100376.27;;;16.97;73.79
61488;BME280;47351;53.326;-6.298;2023-07-08T00:08:18;100375.02;;;17.01;73.72
61488;BME280;47351;53.326;-6.298;2023-07-08T00:11:11;100371.67;;;17.06;73.69
61488;BME280;47351;53.326;-6.298;2023-07-08T00:14:02;100370.98;;;17.11;73.58
61488;BME280;47351;53.326;-6.298;2023-07-08T00:16:52;100366.52;;;17.17;73.25
61488;BME280;47351;53.326;-6.298;2023-07-08T00:19:43;100363.96;;;17.23;73.16
61488;BME280;47351;53.326;-6.298;2023-07-08T00:22:34;100362.20;;;17.26;72.98
61488;BME280;47351;53.326;-6.298;2023-07-08T00:25:25;100358.80;;;17.29;72.74
61488;BME280;47351;53.326;-6.298;2023-07-08T00:28:16;100352.64;;;17.32;72.69
61488;BME280;47351;53.326;-6.298;2023-07-08T00:31:09;100349.34;;;17.33;72.47
61488;BME280;47351;53.326;-6.298;2023-07-08T00:34:00;100339.73;;;17.34;72.42
61488;BME280;47351;53.326;-6.298;2023-07-08T00:36:52;100335.90;;;17.34;72.25
61488;BME280;47351;53.326;-6.298;2023-07-08T00:39:42;100337.18;;;17.35;72.06
61488;BME280;47351;53.326;-6.298;2023-07-08T00:42:33;100325.23;;;17.36;71.97
61488;BME280;47351;53.326;-6.298;2023-07-08T00:45:29;100320.70;;;17.38;71.85
61488;BME280;47351;53.326;-6.298;2023-07-08T00:48:23;100310.64;;;17.40;71.60
61488;BME280;47351;53.326;-6.298;2023-07-08T00:51:13;100305.44;;;17.43;71.45
61488;BME280;47351;53.326;-6.298;2023-07-08T00:54:04;100301.14;;;17.46;71.23
61488;BME280;47351;53.326;-6.298;2023-07-08T00:56:55;100299.63;;;17.51;70.90
61488;BME280;47351;53.326;-6.298;2023-07-08T00:59:48;100294.28;;;17.54;70.63
61488;BME280;47351;53.326;-6.298;2023-07-08T01:02:41;100288.94;;;17.58;70.36
61488;BME280;47351;53.326;-6.298;2023-07-08T01:05:32;100287.17;;;17.61;70.19
61488;BME280;47351;53.326;-6.298;2023-07-08T01:08:23;100286.34;;;17.66;70.03
61488;BME280;47351;53.326;-6.298;2023-07-08T01:11:17;100287.43;;;17.73;69.72
61488;BME280;47351;53.326;-6.298;2023-07-08T01:14:11;100279.73;;;17.81;69.45
61488;BME280;47351;53.326;-6.298;2023-07-08T01:17:03;100278.49;;;17.90;69.13
61488;BME280;47351;53.326;-6.298;2023-07-08T01:19:54;100275.90;;;17.99;68.91
61488;BME280;47351;53.326;-6.298;2023-07-08T01:22:44;100273.43;;;18.06;68.64
61488;BME280;47351;53.326;-6.298;2023-07-08T01:25:35;100271.06;;;18.13;68.50
61488;BME280;47351;53.326;-6.298;2023-07-08T01:28:26;100266.92;;;18.21;68.21
61488;BME280;47351;53.326;-6.298;2023-07-08T01:31:17;100257.53;;;18.28;67.78
61488;BME280;47351;53.326;-6.298;2023-07-08T01:34:09;100249.34;;;18.36;67.34
61488;BME280;47351;53.326;-6.298;2023-07-08T01:37:01;100249.08;;;18.42;67.15
61488;BME280;47351;53.326;-6.298;2023-07-08T01:39:54;100254.67;;;18.44;67.06
61488;BME280;47351;53.326;-6.298;2023-07-08T01:42:44;100246.26;;;18.46;66.89
61488;BME280;47351;53.326;-6.298;2023-07-08T01:45:36;100233.23;;;18.47;66.58
61488;BME280;47351;53.326;-6.298;2023-07-08T01:48:29;100237.13;;;18.50;66.45
61488;BME280;47351;53.326;-6.298;2023-07-08T01:51:21;100233.23;;;18.52;66.36
61488;BME280;47351;53.326;-6.298;2023-07-08T01:54:13;100228.47;;;18.53;66.27
61488;BME280;47351;53.326;-6.298;2023-07-08T01:57:03;100228.59;;;18.53;66.22
61488;BME280;47351;53.326;-6.298;2023-07-08T01:59:54;100224.63;;;18.53;66.17
61488;BME280;47351;53.326;-6.298;2023-07-08T02:02:45;100218.07;;;18.53;66.13
61488;BME280;47351;53.326;-6.298;2023-07-08T02:05:36;100216.75;;;18.52;66.12
61488;BME280;47351;53.326;-6.298;2023-07-08T02:08:27;100220.55;;;18.52;66.14
61488;BME280;47351;53.326;-6.298;2023-07-08T02:11:17;100223.30;;;18.52;66.17
61488;BME280;47351;53.326;-6.298;2023-07-08T02:14:08;100218.98;;;18.51;66.25
61488;BME280;47351;53.326;-6.298;2023-07-08T02:16:58;100212.10;;;18.50;66.29
61488;BME280;47351;53.326;-6.298;2023-07-08T02:19:49;100205.27;;;18.49;66.31
61488;BME280;47351;53.326;-6.298;2023-07-08T02:22:39;100203.34;;;18.50;66.28
61488;BME280;47351;53.326;-6.298;2023-07-08T02:25:30;100202.96;;;18.50;66.33
61488;BME280;47351;53.326;-6.298;2023-07-08T02:28:31;100203.67;;;18.50;66.33
61488;BME280;47351;53.326;-6.298;2023-07-08T02:31:22;100204.30;;;18.50;66.39
61488;BME280;47351;53.326;-6.298;2023-07-08T02:34:13;100205.27;;;18.51;66.49
61488;BME280;47351;53.326;-6.298;2023-07-08T02:37:04;100200.30;;;18.51;66.57
61488;BME280;47351;53.326;-6.298;2023-07-08T02:39:55;100194.92;;;18.51;66.56
61488;BME280;47351;53.326;-6.298;2023-07-08T02:42:45;100196.13;;;18.52;66.61
61488;BME280;47351;53.326;-6.298;2023-07-08T02:45:36;100195.98;;;18.52;66.70
61488;BME280;47351;53.326;-6.298;2023-07-08T02:48:26;100194.64;;;18.53;66.70
61488;BME280;47351;53.326;-6.298;2023-07-08T02:51:17;100191.92;;;18.53;66.78
61488;BME280;47351;53.326;-6.298;2023-07-08T02:54:07;100198.83;;;18.51;66.83
61488;BME280;47351;53.326;-6.298;2023-07-08T02:56:58;100192.01;;;18.50;67.03
61488;BME280;47351;53.326;-6.298;2023-07-08T02:59:49;100187.44;;;18.48;67.19
61488;BME280;47351;53.326;-6.298;2023-07-08T03:02:39;100190.80;;;18.46;67.47
61488;BME280;47351;53.326;-6.298;2023-07-08T03:05:30;100188.09;;;18.46;67.71
61488;BME280;47351;53.326;-6.298;2023-07-08T03:08:20;100184.45;;;18.46;67.86
61488;BME280;47351;53.326;-6.298;2023-07-08T03:11:11;100185.70;;;18.46;67.96
61488;BME280;47351;53.326;-6.298;2023-07-08T03:14:02;100176.81;;;18.46;68.06
61488;BME280;47351;53.326;-6.298;2023-07-08T03:16:53;100172.58;;;18.46;68.17
61488;BME280;47351;53.326;-6.298;2023-07-08T03:19:43;100171.38;;;18.44;68.31
61488;BME280;47351;53.326;-6.298;2023-07-08T03:22:34;100171.56;;;18.42;68.33
61488;BME280;47351;53.326;-6.298;2023-07-08T03:25:24;100171.79;;;18.38;68.43
61488;BME280;47351;53.326;-6.298;2023-07-08T03:28:16;100181.36;;;18.34;68.54
61488;BME280;47351;53.326;-6.298;2023-07-08T03:31:08;100182.14;;;18.30;68.69
61488;BME280;47351;53.326;-6.298;2023-07-08T03:33:59;100186.27;;;18.25;68.87
61488;BME280;47351;53.326;-6.298;2023-07-08T03:36:50;100193.89;;;18.21;69.10
61488;BME280;47351;53.326;-6.298;2023-07-08T03:39:42;100195.41;;;18.17;69.15
61488;BME280;47351;53.326;-6.298;2023-07-08T03:42:32;100196.17;;;18.12;69.32
61488;BME280;47351;53.326;-6.298;2023-07-08T03:45:24;100199.05;;;18.06;69.44
61488;BME280;47351;53.326;-6.298;2023-07-08T03:48:15;100198.27;;;18.00;69.68
61488;BME280;47351;53.326;-6.298;2023-07-08T03:51:06;100199.84;;;17.96;69.95
61488;BME280;47351;53.326;-6.298;2023-07-08T03:53:59;100199.06;;;17.92;70.21
61488;BME280;47351;53.326;-6.298;2023-07-08T03:56:50;100197.91;;;17.90;70.47
61488;BME280;47351;53.326;-6.298;2023-07-08T03:59:42;100185.45;;;17.90;70.81
61488;BME280;47351;53.326;-6.298;2023-07-08T04:02:32;100188.20;;;17.91;71.06
61488;BME280;47351;53.326;-6.298;2023-07-08T04:05:23;100188.65;;;17.92;71.24
61488;BME280;47351;53.326;-6.298;2023-07-08T04:08:14;100194.89;;;17.94;71.58
61488;BME280;47351;53.326;-6.298;2023-07-08T04:11:04;100198.26;;;17.95;71.78
61488;BME280;47351;53.326;-6.298;2023-07-08T04:13:55;100193.53;;;17.97;71.92
61488;BME280;47351;53.326;-6.298;2023-07-08T04:16:46;100190.55;;;17.99;72.16
61488;BME280;47351;53.326;-6.298;2023-07-08T04:19:38;100191.38;;;18.00;72.33
61488;BME280;47351;53.326;-6.298;2023-07-08T04:22:31;100185.22;;;18.01;72.57
61488;BME280;47351;53.326;-6.298;2023-07-08T04:25:22;100184.58;;;18.01;72.86
61488;BME280;47351;53.326;-6.298;2023-07-08T04:28:17;100184.36;;;18.01;73.06
61488;BME280;47351;53.326;-6.298;2023-07-08T04:31:07;100175.11;;;18.02;73.43
61488;BME280;47351;53.326;-6.298;2023-07-08T04:33:58;100169.77;;;18.03;73.93
61488;BME280;47351;53.326;-6.298;2023-07-08T04:36:48;100161.52;;;18.03;74.47
61488;BME280;47351;53.326;-6.298;2023-07-08T04:39:39;100152.58;;;18.05;74.98
61488;BME280;47351;53.326;-6.298;2023-07-08T04:42:30;100155.04;;;18.06;75.71
61488;BME280;47351;53.326;-6.298;2023-07-08T04:45:20;100158.76;;;18.05;76.24
61488;BME280;47351;53.326;-6.298;2023-07-08T04:48:12;100157.35;;;18.04;76.67
61488;BME280;47351;53.326;-6.298;2023-07-08T04:51:03;100154.24;;;18.01;77.02
61488;BME280;47351;53.326;-6.298;2023-07-08T04:53:54;100155.73;;;17.99;77.57
61488;BME280;47351;53.326;-6.298;2023-07-08T04:56:46;100152.27;;;17.94;78.19
61488;BME280;47351;53.326;-6.298;2023-07-08T04:59:37;100155.22;;;17.88;78.71
61488;BME280;47351;53.326;-6.298;2023-07-08T05:02:27;100148.53;;;17.85;78.96
61488;BME280;47351;53.326;-6.298;2023-07-08T05:05:18;100156.71;;;17.83;79.16
61488;BME280;47351;53.326;-6.298;2023-07-08T05:08:09;100158.54;;;17.84;79.65
61488;BME280;47351;53.326;-6.298;2023-07-08T05:10:59;100162.95;;;17.86;80.15
61488;BME280;47351;53.326;-6.298;2023-07-08T05:13:50;100157.94;;;17.87;80.38
61488;BME280;47351;53.326;-6.298;2023-07-08T05:16:41;100145.96;;;17.90;80.42
61488;BME280;47351;53.326;-6.298;2023-07-08T05:19:31;100145.20;;;17.93;80.47
61488;BME280;47351;53.326;-6.298;2023-07-08T05:22:22;100149.77;;;17.94;80.66
61488;BME280;47351;53.326;-6.298;2023-07-08T05:25:15;100153.95;;;17.92;80.85
61488;BME280;47351;53.326;-6.298;2023-07-08T05:28:06;100152.02;;;17.92;81.08
61488;BME280;47351;53.326;-6.298;2023-07-08T05:30:56;100146.48;;;17.93;81.18
61488;BME280;47351;53.326;-6.298;2023-07-08T05:33:47;100160.68;;;17.94;81.72
61488;BME280;47351;53.326;-6.298;2023-07-08T05:36:38;100158.69;;;17.98;81.74
61488;BME280;47351;53.326;-6.298;2023-07-08T05:39:30;100153.02;;;18.05;82.09
61488;BME280;47351;53.326;-6.298;2023-07-08T05:42:21;100141.29;;;18.15;82.37
61488;BME280;47351;53.326;-6.298;2023-07-08T05:45:11;100141.39;;;18.23;82.36
61488;BME280;47351;53.326;-6.298;2023-07-08T05:48:02;100146.98;;;18.30;82.20
61488;BME280;47351;53.326;-6.298;2023-07-08T05:50:53;100153.06;;;18.37;81.95
61488;BME280;47351;53.326;-6.298;2023-07-08T05:53:43;100156.77;;;18.43;81.92
61488;BME280;47351;53.326;-6.298;2023-07-08T05:56:34;100159.69;;;18.50;81.80
61488;BME280;47351;53.326;-6.298;2023-07-08T05:59:25;100164.21;;;18.56;81.78
61488;BME280;47351;53.326;-6.298;2023-07-08T06:02:15;100168.60;;;18.60;81.75
61488;BME280;47351;53.326;-6.298;2023-07-08T06:05:06;100176.57;;;18.59;81.74
61488;BME280;47351;53.326;-6.298;2023-07-08T06:07:57;100185.34;;;18.59;82.11
61488;BME280;47351;53.326;-6.298;2023-07-08T06:10:49;100192.98;;;18.61;82.01
61488;BME280;47351;53.326;-6.298;2023-07-08T06:13:40;100204.93;;;18.63;82.00
61488;BME280;47351;53.326;-6.298;2023-07-08T06:16:30;100212.39;;;18.70;81.71
61488;BME280;47351;53.326;-6.298;2023-07-08T06:19:30;100213.48;;;18.81;80.91
61488;BME280;47351;53.326;-6.298;2023-07-08T06:22:20;100217.06;;;18.93;80.00
61488;BME280;47351;53.326;-6.298;2023-07-08T06:25:31;100214.85;;;19.04;78.74
61488;BME280;47351;53.326;-6.298;2023-07-08T06:28:22;100220.66;;;19.12;77.33
61488;BME280;47351;53.326;-6.298;2023-07-08T06:31:12;100227.21;;;19.18;76.74
61488;BME280;47351;53.326;-6.298;2023-07-08T06:34:03;100242.30;;;19.24;76.04
61488;BME280;47351;53.326;-6.298;2023-07-08T06:36:54;100253.65;;;19.28;75.22
61488;BME280;47351;53.326;-6.298;2023-07-08T06:39:45;100253.89;;;19.29;73.68
61488;BME280;47351;53.326;-6.298;2023-07-08T06:42:35;100256.66;;;19.31;73.00
61488;BME280;47351;53.326;-6.298;2023-07-08T06:45:32;100261.85;;;19.37;71.98
61488;BME280;47351;53.326;-6.298;2023-07-08T06:48:23;100264.09;;;19.43;70.86
61488;BME280;47351;53.326;-6.298;2023-07-08T06:51:15;100268.33;;;19.49;70.43
61488;BME280;47351;53.326;-6.298;2023-07-08T06:54:05;100274.54;;;19.56;70.39
61488;BME280;47351;53.326;-6.298;2023-07-08T06:57:00;100277.94;;;19.65;70.09
61488;BME280;47351;53.326;-6.298;2023-07-08T06:59:50;100284.08;;;19.75;69.54
61488;BME280;47351;53.326;-6.298;2023-07-08T07:02:41;100283.67;;;19.88;69.06
61488;BME280;47351;53.326;-6.298;2023-07-08T07:05:32;100281.69;;;20.11;68.72
61488;BME280;47351;53.326;-6.298;2023-07-08T07:08:23;100282.92;;;20.34;68.24
61488;BME280;47351;53.326;-6.298;2023-07-08T07:11:13;100291.06;;;20.58;67.34
61488;BME280;47351;53.326;-6.298;2023-07-08T07:14:04;100301.39;;;20.84;66.84
61488;BME280;47351;53.326;-6.298;2023-07-08T07:17:14;100315.75;;;21.12;65.96
61488;BME280;47351;53.326;-6.298;2023-07-08T07:20:06;100322.20;;;21.28;64.48
61488;BME280;47351;53.326;-6.298;2023-07-08T07:22:57;100331.41;;;21.18;62.21
61488;BME280;47351;53.326;-6.298;2023-07-08T07:25:47;100335.62;;;21.05;62.26
61488;BME280;47351;53.326;-6.298;2023-07-08T07:28:38;100338.52;;;21.01;62.13
61488;BME280;47351;53.326;-6.298;2023-07-08T07:31:28;100334.61;;;20.97;60.76
61488;BME280;47351;53.326;-6.298;2023-07-08T07:34:21;100343.59;;;20.97;60.39
61488;BME280;47351;53.326;-6.298;2023-07-08T07:37:12;100357.81;;;20.97;59.81
61488;BME280;47351;53.326;-6.298;2023-07-08T07:40:03;100367.91;;;20.94;59.45
61488;BME280;47351;53.326;-6.298;2023-07-08T07:42:54;100368.66;;;20.92;59.22
61488;BME280;47351;53.326;-6.298;2023-07-08T07:45:44;100374.44;;;20.89;59.23
61488;BME280;47351;53.326;-6.298;2023-07-08T07:48:35;100379.86;;;20.95;58.99
61488;BME280;47351;53.326;-6.298;2023-07-08T07:51:25;100386.81;;;21.06;58.49
61488;BME280;47351;53.326;-6.298;2023-07-08T07:54:16;100405.56;;;21.21;58.29
61488;BME280;47351;53.326;-6.298;2023-07-08T07:57:07;100420.64;;;21.35;57.40
61488;BME280;47351;53.326;-6.298;2023-07-08T07:59:57;100424.92;;;21.44;56.89
61488;BME280;47351;53.326;-6.298;2023-07-08T08:02:48;100439.69;;;21.62;56.98
61488;BME280;47351;53.326;-6.298;2023-07-08T08:05:38;100456.05;;;21.72;55.46
61488;BME280;47351;53.326;-6.298;2023-07-08T08:08:29;100467.34;;;21.94;55.10
61488;BME280;47351;53.326;-6.298;2023-07-08T08:11:19;100472.47;;;22.22;54.25
61488;BME280;47351;53.326;-6.298;2023-07-08T08:14:10;100484.95;;;22.62;52.92
61488;BME280;47351;53.326;-6.298;2023-07-08T08:17:01;100489.86;;;23.06;51.67
61488;BME280;47351;53.326;-6.298;2023-07-08T08:19:53;100497.66;;;23.40;50.04
61488;BME280;47351;53.326;-6.298;2023-07-08T08:22:44;100496.92;;;23.62;49.19
61488;BME280;47351;53.326;-6.298;2023-07-08T08:25:34;100500.16;;;23.75;49.63
61488;BME280;47351;53.326;-6.298;2023-07-08T08:28:25;100511.37;;;23.59;48.71
61488;BME280;47351;53.326;-6.298;2023-07-08T08:31:15;100512.25;;;23.11;48.42
61488;BME280;47351;53.326;-6.298;2023-07-08T08:34:06;100525.58;;;22.88;49.01
61488;BME280;47351;53.326;-6.298;2023-07-08T08:36:57;100532.66;;;22.90;49.52
61488;BME280;47351;53.326;-6.298;2023-07-08T08:39:47;100538.30;;;23.07;48.70
61488;BME280;47351;53.326;-6.298;2023-07-08T08:42:40;100549.73;;;23.09;48.24
61488;BME280;47351;53.326;-6.298;2023-07-08T08:45:32;100560.10;;;23.02;48.06
61488;BME280;47351;53.326;-6.298;2023-07-08T08:48:25;100567.81;;;22.93;48.43
61488;BME280;47351;53.326;-6.298;2023-07-08T08:51:17;100578.52;;;22.72;48.27
61488;BME280;47351;53.326;-6.298;2023-07-08T08:54:08;100582.70;;;22.52;48.47
61488;BME280;47351;53.326;-6.298;2023-07-08T08:56:59;100580.61;;;22.56;48.71
61488;BME280;47351;53.326;-6.298;2023-07-08T08:59:54;100588.82;;;22.79;48.65
61488;BME280;47351;53.326;-6.298;2023-07-08T09:02:49;100593.02;;;23.10;47.81
61488;BME280;47351;53.326;-6.298;2023-07-08T09:05:43;100604.66;;;23.40;46.87
61488;BME280;47351;53.326;-6.298;2023-07-08T09:08:35;100605.77;;;23.60;46.74
61488;BME280;47351;53.326;-6.298;2023-07-08T09:11:37;100609.84;;;24.03;46.47
61488;BME280;47351;53.326;-6.298;2023-07-08T09:14:30;100602.43;;;24.94;45.43
61488;BME280;47351;53.326;-6.298;2023-07-08T09:17:22;100600.95;;;26.07;43.65
61488;BME280;47351;53.326;-6.298;2023-07-08T09:20:15;100615.98;;;26.97;42.05
61488;BME280;47351;53.326;-6.298;2023-07-08T09:23:09;100625.89;;;27.94;41.26
61488;BME280;47351;53.326;-6.298;2023-07-08T09:26:04;100639.92;;;28.04;40.35
61488;BME280;47351;53.326;-6.298;2023-07-08T09:28:57;100659.16;;;27.40;40.60
61488;BME280;47351;53.326;-6.298;2023-07-08T09:31:48;100659.73;;;26.78;39.65
61488;BME280;47351;53.326;-6.298;2023-07-08T09:34:41;100650.95;;;25.80;40.85
61488;BME280;47351;53.326;-6.298;2023-07-08T09:37:34;100660.56;;;25.34;41.30
61488;BME280;47351;53.326;-6.298;2023-07-08T09:40:29;100660.71;;;25.80;41.05
61488;BME280;47351;53.326;-6.298;2023-07-08T09:43:23;100662.07;;;27.04;39.62
61488;BME280;47351;53.326;-6.298;2023-07-08T09:46:14;100659.90;;;28.38;37.52
61488;BME280;47351;53.326;-6.298;2023-07-08T09:49:18;100662.44;;;29.49;34.99
61488;BME280;47351;53.326;-6.298;2023-07-08T09:52:11;100665.30;;;30.02;33.38
61488;BME280;47351;53.326;-6.298;2023-07-08T09:55:02;100664.05;;;30.43;32.22
61488;BME280;47351;53.326;-6.298;2023-07-08T09:57:53;100664.05;;;30.94;31.60
61488;BME280;47351;53.326;-6.298;2023-07-08T10:00:44;100671.55;;;31.54;31.52
61488;BME280;47351;53.326;-6.298;2023-07-08T10:03:41;100681.95;;;32.29;30.23
61488;BME280;47351;53.326;-6.298;2023-07-08T10:06:32;100691.25;;;32.16;29.75
61488;BME280;47351;53.326;-6.298;2023-07-08T10:09:24;100697.30;;;32.53;29.86
61488;BME280;47351;53.326;-6.298;2023-07-08T10:12:15;100701.16;;;32.92;29.40
61488;BME280;47351;53.326;-6.298;2023-07-08T10:15:23;100703.36;;;33.37;28.59
61488;BME280;47351;53.326;-6.298;2023-07-08T10:18:21;100714.23;;;32.41;28.15
61488;BME280;47351;53.326;-6.298;2023-07-08T10:21:20;100725.31;;;31.30;29.00
61488;BME280;47351;53.326;-6.298;2023-07-08T10:24:18;100728.39;;;30.75;28.61
61488;BME280;47351;53.326;-6.298;2023-07-08T10:27:14;100721.24;;;29.56;29.12
61488;BME280;47351;53.326;-6.298;2023-07-08T10:30:19;100730.05;;;28.86;30.02
61488;BME280;47351;53.326;-6.298;2023-07-08T10:33:20;100737.46;;;29.00;30.25
61488;BME280;47351;53.326;-6.298;2023-07-08T10:36:21;100733.09;;;29.94;29.94
61488;BME280;47351;53.326;-6.298;2023-07-08T10:42:25;100743.67;;;29.03;29.41
61488;BME280;47351;53.326;-6.298;2023-07-08T10:45:20;100741.74;;;30.21;29.39
61488;BME280;47351;53.326;-6.298;2023-07-08T10:48:20;100737.42;;;31.29;28.97
61488;BME280;47351;53.326;-6.298;2023-07-08T10:51:17;100745.20;;;32.16;27.84
61488;BME280;47351;53.326;-6.298;2023-07-08T10:54:14;100738.50;;;32.50;27.16
61488;BME280;47351;53.326;-6.298;2023-07-08T10:57:13;100740.02;;;33.21;26.31
61488;BME280;47351;53.326;-6.298;2023-07-08T11:00:11;100741.92;;;33.99;26.02
61488;BME280;47351;53.326;-6.298;2023-07-08T11:03:19;100751.95;;;34.67;24.31
61488;BME280;47351;53.326;-6.298;2023-07-08T11:06:17;100744.08;;;35.15;23.78
61488;BME280;47351;53.326;-6.298;2023-07-08T11:09:08;100750.08;;;35.56;23.00
61488;BME280;47351;53.326;-6.298;2023-07-08T11:12:02;100743.44;;;35.62;22.39
61488;BME280;47351;53.326;-6.298;2023-07-08T11:14:56;100741.44;;;35.24;22.30
61488;BME280;47351;53.326;-6.298;2023-07-08T11:17:51;100747.69;;;34.64;22.79
61488;BME280;47351;53.326;-6.298;2023-07-08T11:20:44;100748.45;;;34.19;23.22
61488;BME280;47351;53.326;-6.298;2023-07-08T11:23:36;100755.72;;;33.25;23.44
61488;BME280;47351;53.326;-6.298;2023-07-08T11:26:30;100763.61;;;31.87;24.40
61488;BME280;47351;53.326;-6.298;2023-07-08T11:29:23;100760.98;;;30.87;25.64
61488;BME280;47351;53.326;-6.298;2023-07-08T11:32:15;100759.35;;;30.13;27.02
61488;BME280;47351;53.326;-6.298;2023-07-08T11:35:12;100756.29;;;29.85;27.78
61488;BME280;47351;53.326;-6.298;2023-07-08T11:38:03;100750.55;;;29.54;27.66
61488;BME280;47351;53.326;-6.298;2023-07-08T11:40:56;100750.58;;;29.34;28.18
61488;BME280;47351;53.326;-6.298;2023-07-08T11:43:49;100751.13;;;30.80;27.45
61488;BME280;47351;53.326;-6.298;2023-07-08T11:46:52;100763.58;;;32.61;26.22
61488;BME280;47351;53.326;-6.298;2023-07-08T11:49:43;100765.84;;;33.63;25.37
61488;BME280;47351;53.326;-6.298;2023-07-08T11:52:36;100766.98;;;34.00;24.46
61488;BME280;47351;53.326;-6.298;2023-07-08T11:55:34;100777.89;;;33.52;24.50
61488;BME280;47351;53.326;-6.298;2023-07-08T11:58:26;100779.23;;;33.70;24.76
61488;BME280;47351;53.326;-6.298;2023-07-08T12:01:19;100786.35;;;33.54;24.37
61488;BME280;47351;53.326;-6.298;2023-07-08T12:07:30;100793.91;;;35.03;23.60
61488;BME280;47351;53.326;-6.298;2023-07-08T12:10:26;100798.79;;;35.90;22.94
61488;BME280;47351;53.326;-6.298;2023-07-08T12:13:17;100803.09;;;36.60;21.26
61488;BME280;47351;53.326;-6.298;2023-07-08T12:16:09;100799.27;;;36.93;20.22
61488;BME280;47351;53.326;-6.298;2023-07-08T12:19:01;100812.38;;;36.98;19.76
61488;BME280;47351;53.326;-6.298;2023-07-08T12:21:54;100819.65;;;37.07;19.92
61488;BME280;47351;53.326;-6.298;2023-07-08T12:24:44;100817.35;;;37.28;19.82
61488;BME280;47351;53.326;-6.298;2023-07-08T12:27:35;100811.36;;;37.23;20.07
61488;BME280;47351;53.326;-6.298;2023-07-08T12:30:25;100808.23;;;37.09;20.39
61488;BME280;47351;53.326;-6.298;2023-07-08T12:33:19;100810.34;;;36.54;20.71
61488;BME280;47351;53.326;-6.298;2023-07-08T12:36:13;100823.10;;;35.55;21.32
61488;BME280;47351;53.326;-6.298;2023-07-08T12:39:07;100825.23;;;34.18;21.66
61488;BME280;47351;53.326;-6.298;2023-07-08T12:42:01;100833.36;;;32.76;21.58
61488;BME280;47351;53.326;-6.298;2023-07-08T12:44:54;100841.54;;;31.55;22.68
61488;BME280;47351;53.326;-6.298;2023-07-08T12:47:45;100844.10;;;30.65;23.40
61488;BME280;47351;53.326;-6.298;2023-07-08T12:50:36;100846.65;;;29.88;24.25
61488;BME280;47351;53.326;-6.298;2023-07-08T12:53:27;100855.80;;;29.29;24.36
61488;BME280;47351;53.326;-6.298;2023-07-08T12:56:18;100862.48;;;28.96;25.42
61488;BME280;47351;53.326;-6.298;2023-07-08T12:59:11;100874.23;;;28.67;25.70
61488;BME280;47351;53.326;-6.298;2023-07-08T13:02:02;100866.21;;;28.22;26.21
61488;BME280;47351;53.326;-6.298;2023-07-08T13:04:55;100871.67;;;27.91;26.94
61488;BME280;47351;53.326;-6.298;2023-07-08T13:07:46;100876.98;;;28.19;26.95
61488;BME280;47351;53.326;-6.298;2023-07-08T13:10:37;100873.93;;;28.09;27.25
61488;BME280;47351;53.326;-6.298;2023-07-08T13:13:28;100881.28;;;27.93;27.21
61488;BME280;47351;53.326;-6.298;2023-07-08T13:16:19;100887.28;;;27.42;27.80
61488;BME280;47351;53.326;-6.298;2023-07-08T13:19:11;100888.75;;;27.03;28.18
61488;BME280;47351;53.326;-6.298;2023-07-08T13:22:03;100886.42;;;26.73;28.09
61488;BME280;47351;53.326;-6.298;2023-07-08T13:24:59;100897.30;;;26.99;27.65
61488;BME280;47351;53.326;-6.298;2023-07-08T13:27:57;100901.54;;;27.39;26.52
61488;BME280;47351;53.326;-6.298;2023-07-08T13:30:51;100902.61;;;28.71;25.96
61488;BME280;47351;53.326;-6.298;2023-07-08T13:33:46;100901.91;;;29.70;25.06
61488;BME280;47351;53.326;-6.298;2023-07-08T13:36:37;100910.70;;;30.08;24.19
61488;BME280;47351;53.326;-6.298;2023-07-08T13:39:29;100917.70;;;30.35;23.73
61488;BME280;47351;53.326;-6.298;2023-07-08T13:42:21;100912.13;;;30.74;23.40
61488;BME280;47351;53.326;-6.298;2023-07-08T13:45:14;100916.23;;;30.88;23.42
61488;BME280;47351;53.326;-6.298;2023-07-08T13:48:11;100927.44;;;29.79;24.22
61488;BME280;47351;53.326;-6.298;2023-07-08T13:51:03;100919.84;;;28.65;25.35
61488;BME280;47351;53.326;-6.298;2023-07-08T13:53:57;100911.70;;;28.05;25.99
61488;BME280;47351;53.326;-6.298;2023-07-08T13:56:49;100901.24;;;28.67;25.93
61488;BME280;47351;53.326;-6.298;2023-07-08T13:59:40;100902.28;;;29.84;25.37
61488;BME280;47351;53.326;-6.298;2023-07-08T14:02:30;100894.61;;;30.57;24.69
61488;BME280;47351;53.326;-6.298;2023-07-08T14:05:21;100887.50;;;31.18;24.03
61488;BME280;47351;53.326;-6.298;2023-07-08T14:08:13;100881.20;;;31.60;23.99
61488;BME280;47351;53.326;-6.298;2023-07-08T14:11:04;100881.13;;;31.94;23.65
61488;BME280;47351;53.326;-6.298;2023-07-08T14:13:55;100882.66;;;32.15;22.88
61488;BME280;47351;53.326;-6.298;2023-07-08T14:16:46;100885.64;;;32.16;22.99
61488;BME280;47351;53.326;-6.298;2023-07-08T14:19:38;100886.71;;;32.24;23.30
61488;BME280;47351;53.326;-6.298;2023-07-08T14:22:29;100885.67;;;32.29;22.98
61488;BME280;47351;53.326;-6.298;2023-07-08T14:25:19;100890.11;;;32.18;23.27
61488;BME280;47351;53.326;-6.298;2023-07-08T14:28:12;100888.15;;;32.12;23.17
61488;BME280;47351;53.326;-6.298;2023-07-08T14:31:04;100883.54;;;31.96;23.46
61488;BME280;47351;53.326;-6.298;2023-07-08T14:34:00;100888.88;;;31.28;24.00
61488;BME280;47351;53.326;-6.298;2023-07-08T14:36:52;100898.73;;;30.70;24.09
61488;BME280;47351;53.326;-6.298;2023-07-08T14:39:43;100899.00;;;30.56;24.75
61488;BME280;47351;53.326;-6.298;2023-07-08T14:42:34;100895.38;;;30.68;25.07
61488;BME280;47351;53.326;-6.298;2023-07-08T14:45:25;100895.02;;;30.66;25.12
61488;BME280;47351;53.326;-6.298;2023-07-08T14:48:16;100897.91;;;30.61;24.97
61488;BME280;47351;53.326;-6.298;2023-07-08T14:51:06;100897.78;;;30.56;25.29
61488;BME280;47351;53.326;-6.298;2023-07-08T14:53:57;100899.55;;;30.57;25.33
61488;BME280;47351;53.326;-6.298;2023-07-08T14:56:47;100894.52;;;30.71;25.46